Whitman, NE (69366)

10:35 AM MST on February 11, 2016 (GMT -0700)
Thedford | | Change Station
CLOSE
Current Station
Airport
Location: Thedford,
Elevation: 2927 ft
Nearby Weather Stations

Elev 2927 ft 41.96 °N, 100.57 °W | Updated 20 minutes ago

Overcast
Overcast
37 °F
Feels Like 30 °F
N
10
Wind Variable Wind from SSW

Today
High -- | Low -- °F
--% Chance of Precip.
Yesterday
High -- | Low -- °F
Precip. -- in
Pressure 30.07 in
Visibility 10.0 miles
Clouds Scattered Clouds 12000 ft
Windchill 30 °F
Dew Point 32 °F
Humidity 83%
Rainfall 0.00 in
Snow Depth Not available.
6:47 AM 5:13 PM
Waxing Crescent, 13% visible
METAR KTIF 111715Z AUTO 20009KT 10SM SCT120 03/00 A3007 RMK AO2 T00270000
Pressure 30.07 in
Visibility 10.0 miles
Clouds Scattered Clouds 12000 ft
Windchill 30 °F
Dew Point 32 °F
Humidity 83%
Rainfall 0.00 in
Snow Depth Not available.
6:47 AM 5:13 PM
Waxing Crescent, 13% visible
METAR KTIF 111715Z AUTO 20009KT 10SM SCT120 03/00 A3007 RMK AO2 T00270000

10-Day Weather Forecast

Almanac

Astronomy

Feb. 11, 2016 Rise Set
Actual Time
Civil Twilight
Nautical Twilight
Astronomical Twilight
Moon
Length of Visible Light
Length of Day
Tomorrow will be .
, % of the Moon is Illuminated

Today's Extremes

State Highs State Lows

Community

WunderPhotos

Upload Photos

1,892,109 photos uploaded!

WunderBlog® & News

Nearby

Air Quality

  Air Quality AQ Index Pollutant
Not available.

Snow Depth

Station Depth Elevation

Earthquake Activity

City Distance Mag. Time & Date
Minimum magnitude displayed is 2.5.

Coastal Water Temperatures

Place Temperature

Stations

Nearby Weather Stations

Station Location Temp. Windchill Dew Point Humidity Wind Precip. Elev Updated Type
                   

Watches & Warnings

There are currently no watches in effect.